createdAt,value
2024-01-20T00:03:41.250Z,-2.30
2024-01-20T00:08:02.495Z,-2.30
2024-01-20T00:12:23.322Z,-2.30
2024-01-20T00:16:44.001Z,-2.30
2024-01-20T00:21:08.355Z,-2.30
2024-01-20T00:25:29.034Z,-2.30
2024-01-20T00:29:49.698Z,-2.30
2024-01-20T00:34:10.383Z,-2.30
2024-01-20T00:38:34.456Z,-2.40
2024-01-20T00:42:55.050Z,-2.40
2024-01-20T00:47:15.805Z,-2.40
2024-01-20T00:51:36.552Z,-2.40
2024-01-20T00:55:59.930Z,-2.40
2024-01-20T01:00:21.018Z,-2.40
2024-01-20T01:04:41.611Z,-2.30
2024-01-20T01:09:02.164Z,-2.40
2024-01-20T01:13:25.430Z,-2.30
2024-01-20T01:17:45.973Z,-2.40
2024-01-20T01:22:07.006Z,-2.40
2024-01-20T01:26:29.553Z,-2.50
2024-01-20T01:30:53.850Z,-2.40
2024-01-20T01:35:14.545Z,-2.40
2024-01-20T01:39:35.195Z,-2.40
2024-01-20T01:43:55.963Z,-2.40
2024-01-20T01:48:19.476Z,-2.30
2024-01-20T01:52:40.447Z,-2.50
2024-01-20T01:57:04.455Z,-2.50
2024-01-20T02:01:25.226Z,-2.50
2024-01-20T02:05:48.840Z,-2.60
2024-01-20T02:10:11.716Z,-2.60
2024-01-20T02:14:33.301Z,-2.60
2024-01-20T02:18:53.979Z,-2.60
2024-01-20T02:23:17.223Z,-2.60
2024-01-20T02:27:37.819Z,-2.50
2024-01-20T02:31:58.489Z,-2.50
2024-01-20T02:36:19.106Z,-2.60
2024-01-20T02:40:42.261Z,-2.60
2024-01-20T02:45:02.855Z,-2.60
2024-01-20T02:49:23.746Z,-2.70
2024-01-20T02:53:44.381Z,-2.80
2024-01-20T02:58:07.725Z,-2.80
2024-01-20T03:02:28.313Z,-2.80
2024-01-20T03:06:48.999Z,-2.80
2024-01-20T03:11:09.551Z,-2.80
2024-01-20T03:15:32.842Z,-2.90
2024-01-20T03:19:53.414Z,-2.90
2024-01-20T03:24:13.976Z,-2.90
2024-01-20T03:28:34.554Z,-2.90
2024-01-20T03:32:57.782Z,-3.10
2024-01-20T03:37:18.550Z,-3.20
2024-01-20T03:41:39.126Z,-3.20
2024-01-20T03:46:00.057Z,-3.20
2024-01-20T03:50:23.327Z,-3.20
2024-01-20T03:54:44.103Z,-3.20
2024-01-20T03:59:04.728Z,-3.20
2024-01-20T04:03:25.484Z,-3.10
2024-01-20T04:07:49.347Z,-3.10
2024-01-20T04:12:11.025Z,-3.10
2024-01-20T04:16:32.159Z,-3.00
2024-01-20T04:20:52.774Z,-3.10
2024-01-20T04:25:16.923Z,-3.00
2024-01-20T04:29:37.766Z,-3.10
2024-01-20T04:33:59.037Z,-3.20
2024-01-20T04:38:20.164Z,-3.20
2024-01-20T04:42:43.493Z,-3.30
2024-01-20T04:47:04.549Z,-3.20
2024-01-20T04:51:25.610Z,-3.20
2024-01-20T04:55:46.481Z,-3.20
2024-01-20T05:00:11.988Z,-3.20
2024-01-20T05:04:32.534Z,-3.20
2024-01-20T05:08:53.110Z,-3.30
2024-01-20T05:13:13.820Z,-3.40
2024-01-20T05:17:37.092Z,-3.40
2024-01-20T05:21:57.674Z,-3.30
2024-01-20T05:26:18.452Z,-3.30
2024-01-20T05:30:39.033Z,-3.30
2024-01-20T05:35:02.179Z,-3.20
2024-01-20T05:39:22.844Z,-3.30
2024-01-20T05:43:43.410Z,-3.20
2024-01-20T05:48:03.994Z,-3.30
2024-01-20T05:52:27.322Z,-3.20
2024-01-20T05:56:47.940Z,-3.20
2024-01-20T06:01:08.935Z,-3.20
2024-01-20T06:05:29.644Z,-3.20
2024-01-20T06:09:52.805Z,-3.10
2024-01-20T06:14:13.531Z,-3.20
2024-01-20T06:18:34.485Z,-3.20
2024-01-20T06:22:55.087Z,-3.20
2024-01-20T06:27:18.645Z,-3.20
2024-01-20T06:31:39.213Z,-3.30
2024-01-20T06:35:59.990Z,-3.30
2024-01-20T06:40:20.724Z,-3.40
2024-01-20T06:44:43.905Z,-3.40
2024-01-20T06:49:04.833Z,-3.40
2024-01-20T06:53:25.466Z,-3.40
2024-01-20T06:57:46.082Z,-3.40
2024-01-20T07:02:09.755Z,-3.40
2024-01-20T07:06:30.453Z,-3.50
2024-01-20T07:10:51.229Z,-3.50
2024-01-20T07:15:13.598Z,-3.60
2024-01-20T07:19:36.792Z,-3.60
2024-01-20T07:23:57.912Z,-3.60
2024-01-20T07:28:18.674Z,-3.60
2024-01-20T07:32:41.813Z,-3.60
2024-01-20T07:37:05.547Z,-3.70
2024-01-20T07:41:26.366Z,-3.70
2024-01-20T07:45:47.296Z,-3.70
2024-01-20T07:50:09.051Z,-3.70
2024-01-20T07:54:32.416Z,-3.70
2024-01-20T07:58:53.053Z,-3.50
2024-01-20T08:03:13.880Z,-3.30
2024-01-20T08:07:34.622Z,-3.30
2024-01-20T08:11:57.939Z,-3.30
2024-01-20T08:16:18.607Z,-3.40
2024-01-20T08:20:39.277Z,-3.50
2024-01-20T08:25:01.405Z,-3.40
2024-01-20T08:29:24.881Z,-3.30
2024-01-20T08:33:45.786Z,-2.90
2024-01-20T08:38:07.141Z,-2.50
2024-01-20T08:42:28.022Z,-2.30
2024-01-20T08:46:51.704Z,-2.20
2024-01-20T08:51:12.477Z,-1.90
2024-01-20T08:55:33.177Z,-1.50
2024-01-20T08:59:54.224Z,-1.40
2024-01-20T09:04:17.595Z,-1.20
2024-01-20T09:08:38.384Z,-1.10
2024-01-20T09:12:58.914Z,-1.20
2024-01-20T09:17:19.452Z,-1.40
2024-01-20T09:21:46.806Z,-1.40
2024-01-20T09:26:08.180Z,-1.20
2024-01-20T09:30:28.767Z,-1.20
2024-01-20T09:34:49.505Z,-1.00
2024-01-20T09:39:13.613Z,-0.80
2024-01-20T09:43:36.452Z,-0.40
2024-01-20T09:47:57.300Z,-0.50
2024-01-20T09:52:19.914Z,-0.70
2024-01-20T09:56:43.831Z,-0.90
2024-01-20T10:01:06.933Z,-1.00
2024-01-20T10:05:29.849Z,-0.80
2024-01-20T10:09:50.650Z,-0.50
2024-01-20T10:14:13.823Z,-0.30
2024-01-20T10:18:34.669Z,-0.30
2024-01-20T10:22:55.982Z,0.00
2024-01-20T10:27:20.691Z,0.30
2024-01-20T10:31:44.088Z,0.90
2024-01-20T10:36:07.636Z,1.20
2024-01-20T10:40:31.145Z,1.30
2024-01-20T10:45:05.397Z,1.40
2024-01-20T10:49:28.671Z,2.00
2024-01-20T10:53:53.182Z,2.50
2024-01-20T10:58:19.209Z,2.80
2024-01-20T11:02:40.588Z,3.20
2024-01-20T11:07:04.241Z,3.40
2024-01-20T11:11:36.589Z,3.20
2024-01-20T11:15:59.988Z,3.00
2024-01-20T11:20:20.657Z,3.10
2024-01-20T11:24:46.406Z,2.90
2024-01-20T11:29:10.729Z,3.10
2024-01-20T11:33:36.250Z,3.40
2024-01-20T11:38:00.197Z,3.70
2024-01-20T11:42:27.738Z,4.50
2024-01-20T11:46:49.945Z,4.60
2024-01-20T11:51:13.093Z,4.40
2024-01-20T11:55:35.277Z,4.10
2024-01-20T11:59:58.687Z,4.20
2024-01-20T12:04:19.592Z,4.30
2024-01-20T12:08:42.652Z,4.50
2024-01-20T12:13:05.346Z,4.80
2024-01-20T12:17:29.478Z,4.80
2024-01-20T12:21:51.334Z,4.90
2024-01-20T12:26:16.003Z,5.10
2024-01-20T12:30:36.705Z,5.30
2024-01-20T12:34:59.933Z,6.30
2024-01-20T12:39:20.854Z,6.30
2024-01-20T12:43:41.753Z,6.40
2024-01-20T12:48:03.339Z,6.60
2024-01-20T12:52:27.449Z,6.10
2024-01-20T12:56:49.811Z,6.20
2024-01-20T13:01:10.566Z,6.60
2024-01-20T13:05:31.323Z,7.00
2024-01-20T13:09:54.705Z,7.40
2024-01-20T13:14:16.181Z,6.90
2024-01-20T13:18:37.563Z,6.50
2024-01-20T13:22:58.152Z,7.30
2024-01-20T13:27:21.709Z,7.20
2024-01-20T13:31:42.328Z,7.20
2024-01-20T13:36:03.052Z,7.30
2024-01-20T13:40:23.991Z,7.10
2024-01-20T13:44:47.220Z,6.30
2024-01-20T13:49:10.213Z,6.20
2024-01-20T13:53:32.429Z,5.90
2024-01-20T13:57:53.004Z,6.30
2024-01-20T14:02:16.319Z,6.20
2024-01-20T14:06:37.453Z,6.10
2024-01-20T14:10:58.038Z,5.90
2024-01-20T14:15:19.612Z,6.00
2024-01-20T14:19:42.857Z,6.10
2024-01-20T14:24:03.660Z,6.10
2024-01-20T14:28:24.840Z,5.90
2024-01-20T14:32:45.581Z,5.90
2024-01-20T14:37:09.620Z,5.90
2024-01-20T14:41:31.533Z,5.90
2024-01-20T14:45:52.295Z,5.70
2024-01-20T14:50:14.262Z,5.50
2024-01-20T14:54:38.982Z,5.30
2024-01-20T14:59:02.908Z,4.90
2024-01-20T15:03:23.572Z,4.40
2024-01-20T15:07:44.212Z,4.50
2024-01-20T15:12:07.953Z,4.30
2024-01-20T15:16:28.627Z,4.40
2024-01-20T15:20:49.218Z,4.30
2024-01-20T15:25:12.426Z,4.20
2024-01-20T15:29:35.749Z,4.00
2024-01-20T15:33:58.517Z,3.60
2024-01-20T15:38:19.755Z,3.20
2024-01-20T15:42:40.304Z,2.60
2024-01-20T15:47:03.518Z,2.10
2024-01-20T15:51:24.233Z,1.60
2024-01-20T15:55:44.767Z,1.10
2024-01-20T16:00:06.855Z,0.60
2024-01-20T16:04:35.395Z,0.30
2024-01-20T16:08:57.857Z,0.00
2024-01-20T16:13:18.408Z,-0.30
2024-01-20T16:17:41.578Z,-0.60
2024-01-20T16:22:04.992Z,-0.90
2024-01-20T16:26:25.917Z,-1.10
2024-01-20T16:30:46.683Z,-1.30
2024-01-20T16:35:08.476Z,-1.50
2024-01-20T16:39:31.678Z,-1.60
2024-01-20T16:43:52.216Z,-1.70
2024-01-20T16:48:12.931Z,-1.90
2024-01-20T16:52:33.800Z,-2.00
2024-01-20T16:56:56.904Z,-2.10
2024-01-20T17:01:17.527Z,-2.20
2024-01-20T17:05:40.162Z,-2.20
2024-01-20T17:10:01.005Z,-2.30
2024-01-20T17:14:26.284Z,-2.50
2024-01-20T17:18:47.006Z,-2.60
2024-01-20T17:23:07.896Z,-2.70
2024-01-20T17:27:28.666Z,-2.80
2024-01-20T17:31:52.050Z,-2.90
2024-01-20T17:36:12.811Z,-3.00
2024-01-20T17:40:33.638Z,-3.00
2024-01-20T17:44:54.286Z,-3.10
2024-01-20T17:49:17.503Z,-3.20
2024-01-20T17:53:38.160Z,-3.30
2024-01-20T17:58:00.566Z,-3.40
2024-01-20T18:02:21.148Z,-3.50
2024-01-20T18:06:44.410Z,-3.60
2024-01-20T18:11:05.294Z,-3.60
2024-01-20T18:15:26.151Z,-3.70
2024-01-20T18:19:46.766Z,-3.70
2024-01-20T18:24:10.233Z,-3.80
2024-01-20T18:28:31.993Z,-3.90
2024-01-20T18:32:52.558Z,-3.90
2024-01-20T18:37:13.249Z,-4.00
2024-01-20T18:41:36.382Z,-4.10
2024-01-20T18:45:57.163Z,-4.10
2024-01-20T18:50:18.830Z,-4.20
2024-01-20T18:54:43.431Z,-4.30
2024-01-20T18:59:07.206Z,-4.40
2024-01-20T19:03:28.037Z,-4.50
2024-01-20T19:07:48.727Z,-4.50
2024-01-20T19:12:10.911Z,-4.60
2024-01-20T19:16:36.555Z,-4.70
2024-01-20T19:20:57.354Z,-4.80
2024-01-20T19:25:18.230Z,-4.80
2024-01-20T19:29:38.955Z,-4.90
2024-01-20T19:34:02.909Z,-5.00
2024-01-20T19:38:23.675Z,-5.00
2024-01-20T19:42:49.310Z,-5.10
2024-01-20T19:47:10.167Z,-5.10
2024-01-20T19:51:34.607Z,-5.20
2024-01-20T19:55:55.738Z,-5.30
2024-01-20T20:00:21.497Z,-5.40
2024-01-20T20:04:44.951Z,-5.50
2024-01-20T20:09:10.613Z,-5.60
2024-01-20T20:13:31.216Z,-5.50
2024-01-20T20:17:52.216Z,-5.60
2024-01-20T20:22:12.986Z,-5.60
2024-01-20T20:26:36.429Z,-5.70
2024-01-20T20:31:04.188Z,-5.80
2024-01-20T20:35:28.278Z,-5.80
2024-01-20T20:39:49.942Z,-5.90
2024-01-20T20:44:13.450Z,-5.90
2024-01-20T20:48:34.400Z,-6.00
2024-01-20T20:52:55.132Z,-6.00
2024-01-20T20:57:16.015Z,-6.10
2024-01-20T21:01:39.244Z,-6.10
2024-01-20T21:06:00.125Z,-6.20
2024-01-20T21:10:21.179Z,-6.20
2024-01-20T21:14:41.874Z,-6.30
2024-01-20T21:19:05.207Z,-6.40
2024-01-20T21:23:25.831Z,-6.40
2024-01-20T21:27:46.976Z,-6.50
2024-01-20T21:32:09.038Z,-6.60
2024-01-20T21:36:32.236Z,-6.60
2024-01-20T21:40:52.778Z,-6.60
2024-01-20T21:45:14.128Z,-6.70
2024-01-20T21:49:38.261Z,-6.70
2024-01-20T21:54:03.459Z,-6.70
2024-01-20T21:58:24.304Z,-6.70
2024-01-20T22:02:45.434Z,-6.80
2024-01-20T22:07:06.946Z,-6.90
2024-01-20T22:11:30.916Z,-7.00
2024-01-20T22:15:51.641Z,-7.00
2024-01-20T22:20:14.469Z,-7.10
2024-01-20T22:24:35.170Z,-7.10
2024-01-20T22:28:59.225Z,-7.20
2024-01-20T22:33:20.904Z,-7.20
2024-01-20T22:37:41.620Z,-7.30
2024-01-20T22:42:02.675Z,-7.30
2024-01-20T22:46:27.377Z,-7.40
2024-01-20T22:50:48.491Z,-7.40
2024-01-20T22:55:10.486Z,-7.50
2024-01-20T22:59:31.230Z,-7.50
2024-01-20T23:03:54.410Z,-7.60
2024-01-20T23:08:16.388Z,-7.60
2024-01-20T23:12:37.329Z,-7.70
2024-01-20T23:16:57.894Z,-7.70
2024-01-20T23:21:21.135Z,-7.70
2024-01-20T23:25:41.689Z,-7.80
2024-01-20T23:30:02.379Z,-7.80
2024-01-20T23:34:23.111Z,-7.80
2024-01-20T23:38:46.880Z,-7.80
2024-01-20T23:43:07.750Z,-7.90
2024-01-20T23:47:28.269Z,-7.90
2024-01-20T23:51:49.001Z,-8.00
2024-01-20T23:56:13.161Z,-8.00
